Strona główna
METAR-TAF:

METAR-TAF

Lotnisko :

Port lotniczy Nowosybirsk-Tołmaczowo

Nowosybirsk, Rosja

Szerokość geograficzna: 55-01N, Długość geograficzna: 082-38E, wysokość: 111 m

Aktualna obserwacja pogody

Raport powstał 35 minut temu, godzina 10:30 UTC
Wiatr 12 kt od zachód
Temperatura 6°C
Wilgotność 49%
Ciśnienie 1025 hPa
Widzialność 10 km lub więcej
Brak chmur poniżej 1500 m i brak chmur cumulonimbus

METAR: UNNT 031030Z 27006MPS CAVOK 06/M04 Q1025 R25/150065 R16/150065 NOSIG RMK QFE759/1012

czas: 18:05 (11:05 UTC)

Prognoza

Raport powstał 3 godziny i 5 minut temu, godzina 08:00 UTC
Prognoza ważna od 03 godzina 09 UTC do 04 godzina 09 UTC
Wiatr 14 kt od zachodnio-południowy zachód w porywach dochodzący do 27 kt
Widzialność 10 km lub więcej
Brak chmur poniżej 1500 m i brak chmur cumulonimbus
Stopniowe zmiany
od 03 godzina 10 UTC do 03 godzina 12 UTC
Wiatr 6 kt od zachodnio-północny zachód w porywach dochodzący do 16 kt

TAF: UNNT 030800Z 0309/0409 25007G14MPS CAVOK BECMG 0310/0312 30003G08MPS

Obserwacja i prognoza pogody dla ponad 4000 lotnisk (raport METAR i TAF).

Dostępne stacje oznaczono żółtymi i czerwonymi punktami na mapie.

Najedź kursorem aby zobaczyć nazwę stacji.

Kliknij aby zobaczyć obserwacje i prognozy pogody.

Aby zmienić mapę: kliknij na zielony przycisk z czarnym krzyżykiem, aby powiększyć; na zielony przycisk z myślnikiem, aby pomniejszyć; na zielone strzałki, aby przejść do map sąsiednich.


METAR-TAF: